sensor_id;sensor_type;location;lat;lon;timestamp;pressure;altitude;pressure_sealevel;temperature;humidity
41312;BME280;27061;41.648;24.568;2022-11-15T00:00:46;86306.25;;;4.35;55.33
41312;BME280;27061;41.648;24.568;2022-11-15T00:03:32;86300.72;;;4.31;54.31
41312;BME280;27061;41.648;24.568;2022-11-15T00:06:18;86291.00;;;4.22;54.25
41312;BME280;27061;41.648;24.568;2022-11-15T00:09:03;86289.59;;;4.21;54.45
41312;BME280;27061;41.648;24.568;2022-11-15T00:11:48;86322.91;;;4.48;53.70
41312;BME280;27061;41.648;24.568;2022-11-15T00:14:34;86256.16;;;3.87;54.44
41312;BME280;27061;41.648;24.568;2022-11-15T00:17:19;86311.88;;;4.44;54.08
41312;BME280;27061;41.648;24.568;2022-11-15T00:20:05;86262.53;;;3.99;53.59
41312;BME280;27061;41.648;24.568;2022-11-15T00:22:50;86299.91;;;4.23;54.11
41312;BME280;27061;41.648;24.568;2022-11-15T00:25:36;86285.97;;;4.09;53.11
41312;BME280;27061;41.648;24.568;2022-11-15T00:28:21;86305.59;;;4.37;52.17
41312;BME280;27061;41.648;24.568;2022-11-15T00:31:10;86293.84;;;4.30;53.56
41312;BME280;27061;41.648;24.568;2022-11-15T00:33:56;86286.91;;;4.25;53.38
41312;BME280;27061;41.648;24.568;2022-11-15T00:36:41;86302.22;;;4.40;52.98
41312;BME280;27061;41.648;24.568;2022-11-15T00:39:27;86290.50;;;4.36;54.05
41312;BME280;27061;41.648;24.568;2022-11-15T00:42:12;86289.16;;;4.37;54.12
41312;BME280;27061;41.648;24.568;2022-11-15T00:44:58;86293.91;;;4.34;53.29
41312;BME280;27061;41.648;24.568;2022-11-15T00:47:44;86260.16;;;4.22;52.13
41312;BME280;27061;41.648;24.568;2022-11-15T00:50:31;86283.75;;;4.41;53.29
41312;BME280;27061;41.648;24.568;2022-11-15T00:53:17;86268.44;;;4.28;53.11
41312;BME280;27061;41.648;24.568;2022-11-15T00:56:03;86285.03;;;4.36;53.42
41312;BME280;27061;41.648;24.568;2022-11-15T00:58:49;86278.84;;;4.35;52.45
41312;BME280;27061;41.648;24.568;2022-11-15T01:01:34;86253.16;;;4.13;52.50
41312;BME280;27061;41.648;24.568;2022-11-15T01:04:19;86277.28;;;4.22;52.20
41312;BME280;27061;41.648;24.568;2022-11-15T01:07:05;86242.72;;;4.01;51.57
41312;BME280;27061;41.648;24.568;2022-11-15T01:09:50;86244.09;;;4.02;51.84
41312;BME280;27061;41.648;24.568;2022-11-15T01:12:36;86229.47;;;3.87;52.46
41312;BME280;27061;41.648;24.568;2022-11-15T01:15:21;86268.19;;;4.10;53.74
41312;BME280;27061;41.648;24.568;2022-11-15T01:18:07;86251.47;;;3.91;54.41
41312;BME280;27061;41.648;24.568;2022-11-15T01:20:52;86266.88;;;4.15;52.58
41312;BME280;27061;41.648;24.568;2022-11-15T01:23:39;86257.03;;;3.97;53.13
41312;BME280;27061;41.648;24.568;2022-11-15T01:26:25;86259.09;;;3.99;53.61
41312;BME280;27061;41.648;24.568;2022-11-15T01:29:10;86265.25;;;3.97;54.59
41312;BME280;27061;41.648;24.568;2022-11-15T01:31:56;86245.13;;;3.83;54.23
41312;BME280;27061;41.648;24.568;2022-11-15T01:34:41;86263.97;;;4.02;53.11
41312;BME280;27061;41.648;24.568;2022-11-15T01:37:26;86263.22;;;4.00;52.42
41312;BME280;27061;41.648;24.568;2022-11-15T01:40:12;86245.97;;;3.91;51.51
41312;BME280;27061;41.648;24.568;2022-11-15T01:42:58;86248.09;;;3.97;51.71
41312;BME280;27061;41.648;24.568;2022-11-15T01:45:43;86255.06;;;4.04;53.21
41312;BME280;27061;41.648;24.568;2022-11-15T01:48:33;86252.41;;;4.08;53.45
41312;BME280;27061;41.648;24.568;2022-11-15T01:51:20;86259.25;;;4.09;53.05
41312;BME280;27061;41.648;24.568;2022-11-15T01:54:10;86246.78;;;4.00;54.10
41312;BME280;27061;41.648;24.568;2022-11-15T01:57:01;86227.38;;;3.86;53.28
41312;BME280;27061;41.648;24.568;2022-11-15T01:59:48;86242.72;;;4.01;52.02
41312;BME280;27061;41.648;24.568;2022-11-15T02:02:36;86221.81;;;3.80;52.37
41312;BME280;27061;41.648;24.568;2022-11-15T02:05:22;86246.72;;;3.96;52.18
41312;BME280;27061;41.648;24.568;2022-11-15T02:08:08;86252.28;;;4.00;51.12
41312;BME280;27061;41.648;24.568;2022-11-15T02:11:08;86249.53;;;4.00;50.55
41312;BME280;27061;41.648;24.568;2022-11-15T02:13:55;86230.16;;;3.88;50.09
41312;BME280;27061;41.648;24.568;2022-11-15T02:16:58;86245.34;;;3.95;51.58
41312;BME280;27061;41.648;24.568;2022-11-15T02:23:41;86250.81;;;3.95;49.38
41312;BME280;27061;41.648;24.568;2022-11-15T02:30:12;86243.91;;;3.90;49.31
41312;BME280;27061;41.648;24.568;2022-11-15T02:33:00;86245.28;;;3.91;49.23
41312;BME280;27061;41.648;24.568;2022-11-15T02:44:33;86225.97;;;3.83;49.53
41312;BME280;27061;41.648;24.568;2022-11-15T02:47:20;86228.28;;;3.98;48.96
41312;BME280;27061;41.648;24.568;2022-11-15T02:50:10;86229.53;;;3.91;49.60
41312;BME280;27061;41.648;24.568;2022-11-15T02:52:57;86228.16;;;3.90;48.30
41312;BME280;27061;41.648;24.568;2022-11-15T02:55:50;86221.84;;;3.82;48.42
41312;BME280;27061;41.648;24.568;2022-11-15T02:58:52;86212.63;;;3.63;48.30
41312;BME280;27061;41.648;24.568;2022-11-15T03:11:03;86225.00;;;3.66;47.84
41312;BME280;27061;41.648;24.568;2022-11-15T03:20:01;86232.75;;;3.78;47.37
41312;BME280;27061;41.648;24.568;2022-11-15T03:22:50;86228.69;;;3.83;47.42
41312;BME280;27061;41.648;24.568;2022-11-15T03:25:41;86226.56;;;3.77;47.29
41312;BME280;27061;41.648;24.568;2022-11-15T03:28:53;86235.47;;;3.78;47.42
41312;BME280;27061;41.648;24.568;2022-11-15T03:31:46;86209.16;;;3.58;47.59
41312;BME280;27061;41.648;24.568;2022-11-15T03:34:47;86227.88;;;3.74;47.13
41312;BME280;27061;41.648;24.568;2022-11-15T03:40:33;86214.91;;;3.77;49.46
41312;BME280;27061;41.648;24.568;2022-11-15T03:43:41;86216.19;;;3.72;50.16
41312;BME280;27061;41.648;24.568;2022-11-15T03:46:42;86209.97;;;3.67;50.62
41312;BME280;27061;41.648;24.568;2022-11-15T03:49:34;86184.50;;;3.58;48.14
41312;BME280;27061;41.648;24.568;2022-11-15T03:52:21;86207.97;;;3.70;48.69
41312;BME280;27061;41.648;24.568;2022-11-15T03:55:12;86201.78;;;3.69;46.09
41312;BME280;27061;41.648;24.568;2022-11-15T03:57:59;86209.31;;;3.68;47.61
41312;BME280;27061;41.648;24.568;2022-11-15T04:00:45;86203.75;;;3.64;47.31
41312;BME280;27061;41.648;24.568;2022-11-15T04:03:31;86206.66;;;3.75;46.13
41312;BME280;27061;41.648;24.568;2022-11-15T04:06:17;86199.91;;;3.80;46.69
41312;BME280;27061;41.648;24.568;2022-11-15T04:09:02;86186.06;;;3.72;46.87
41312;BME280;27061;41.648;24.568;2022-11-15T04:11:48;86184.69;;;3.68;46.64
41312;BME280;27061;41.648;24.568;2022-11-15T04:14:34;86177.66;;;3.57;47.41
41312;BME280;27061;41.648;24.568;2022-11-15T04:17:19;86178.38;;;3.62;46.75
41312;BME280;27061;41.648;24.568;2022-11-15T04:20:16;86165.19;;;3.48;46.35
41312;BME280;27061;41.648;24.568;2022-11-15T04:23:22;86184.59;;;3.64;47.95
41312;BME280;27061;41.648;24.568;2022-11-15T04:26:26;86162.41;;;3.46;48.21
41312;BME280;27061;41.648;24.568;2022-11-15T04:29:12;86155.47;;;3.41;49.28
41312;BME280;27061;41.648;24.568;2022-11-15T04:32:16;86192.16;;;3.66;50.09
41312;BME280;27061;41.648;24.568;2022-11-15T04:35:01;86188.66;;;3.61;49.36
41312;BME280;27061;41.648;24.568;2022-11-15T04:37:47;86190.13;;;3.66;50.75
41312;BME280;27061;41.648;24.568;2022-11-15T04:40:34;86158.84;;;3.38;49.38
41312;BME280;27061;41.648;24.568;2022-11-15T04:43:19;86151.34;;;3.38;49.13
41312;BME280;27061;41.648;24.568;2022-11-15T04:46:05;86151.75;;;3.22;48.36
41312;BME280;27061;41.648;24.568;2022-11-15T04:48:51;86130.34;;;3.11;48.08
41312;BME280;27061;41.648;24.568;2022-11-15T04:51:42;86147.06;;;3.29;48.31
41312;BME280;27061;41.648;24.568;2022-11-15T04:54:28;86185.91;;;3.59;46.76
41312;BME280;27061;41.648;24.568;2022-11-15T04:57:14;86127.84;;;3.25;46.67
41312;BME280;27061;41.648;24.568;2022-11-15T04:59:59;86159.56;;;3.40;48.36
41312;BME280;27061;41.648;24.568;2022-11-15T05:02:45;86165.88;;;3.49;48.70
41312;BME280;27061;41.648;24.568;2022-11-15T05:05:49;86154.00;;;3.34;48.56
41312;BME280;27061;41.648;24.568;2022-11-15T05:08:34;86184.56;;;3.62;48.87
41312;BME280;27061;41.648;24.568;2022-11-15T05:11:21;86187.25;;;3.60;49.43
41312;BME280;27061;41.648;24.568;2022-11-15T05:14:07;86158.16;;;3.39;48.86
41312;BME280;27061;41.648;24.568;2022-11-15T05:16:52;86144.38;;;3.31;46.23
41312;BME280;27061;41.648;24.568;2022-11-15T05:19:38;86172.88;;;3.58;47.29
41312;BME280;27061;41.648;24.568;2022-11-15T05:22:23;86180.38;;;3.57;48.28
41312;BME280;27061;41.648;24.568;2022-11-15T05:25:09;86176.88;;;3.53;48.91
41312;BME280;27061;41.648;24.568;2022-11-15T05:27:54;86177.53;;;3.51;48.47
41312;BME280;27061;41.648;24.568;2022-11-15T05:30:40;86173.28;;;3.42;47.26
41312;BME280;27061;41.648;24.568;2022-11-15T05:33:26;86152.03;;;3.39;48.50
41312;BME280;27061;41.648;24.568;2022-11-15T05:38:57;86181.78;;;3.60;48.38
41312;BME280;27061;41.648;24.568;2022-11-15T05:41:44;86178.38;;;3.62;48.27
41312;BME280;27061;41.648;24.568;2022-11-15T05:44:31;86174.09;;;3.51;49.63
41312;BME280;27061;41.648;24.568;2022-11-15T05:47:20;86181.75;;;3.56;51.23
41312;BME280;27061;41.648;24.568;2022-11-15T05:50:12;86181.63;;;3.50;51.50
41312;BME280;27061;41.648;24.568;2022-11-15T05:53:00;86173.34;;;3.46;50.58
41312;BME280;27061;41.648;24.568;2022-11-15T05:55:49;86164.94;;;3.34;50.10
41312;BME280;27061;41.648;24.568;2022-11-15T05:58:36;86189.91;;;3.54;50.04
41312;BME280;27061;41.648;24.568;2022-11-15T06:01:22;86174.75;;;3.47;50.52
41312;BME280;27061;41.648;24.568;2022-11-15T06:04:09;86167.81;;;3.42;51.02
41312;BME280;27061;41.648;24.568;2022-11-15T06:06:55;86172.63;;;3.44;51.30
41312;BME280;27061;41.648;24.568;2022-11-15T06:09:41;86168.50;;;3.43;50.85
41312;BME280;27061;41.648;24.568;2022-11-15T06:12:27;86180.31;;;3.53;51.41
41312;BME280;27061;41.648;24.568;2022-11-15T06:15:12;86169.41;;;3.55;51.58
41312;BME280;27061;41.648;24.568;2022-11-15T06:17:58;86196.97;;;3.67;51.92
41312;BME280;27061;41.648;24.568;2022-11-15T06:20:44;86171.41;;;3.53;51.58
41312;BME280;27061;41.648;24.568;2022-11-15T06:23:34;86179.78;;;3.63;52.09
41312;BME280;27061;41.648;24.568;2022-11-15T06:26:19;86195.13;;;3.82;52.54
41312;BME280;27061;41.648;24.568;2022-11-15T06:29:05;86180.56;;;3.67;52.43
41312;BME280;27061;41.648;24.568;2022-11-15T06:31:51;86186.75;;;3.72;52.98
41312;BME280;27061;41.648;24.568;2022-11-15T06:34:36;86198.03;;;3.90;53.45
41312;BME280;27061;41.648;24.568;2022-11-15T06:37:21;86203.00;;;4.02;52.96
41312;BME280;27061;41.648;24.568;2022-11-15T06:40:09;86179.59;;;3.95;52.72
41312;BME280;27061;41.648;24.568;2022-11-15T06:42:58;86183.22;;;4.08;53.48
41312;BME280;27061;41.648;24.568;2022-11-15T06:45:44;86189.59;;;4.22;53.93
41312;BME280;27061;41.648;24.568;2022-11-15T06:48:31;86201.56;;;4.47;53.19
41312;BME280;27061;41.648;24.568;2022-11-15T06:51:17;86205.16;;;4.60;51.66
41312;BME280;27061;41.648;24.568;2022-11-15T06:54:02;86204.50;;;4.61;52.13
41312;BME280;27061;41.648;24.568;2022-11-15T06:56:48;86196.94;;;4.60;52.99
41312;BME280;27061;41.648;24.568;2022-11-15T06:59:34;86191.69;;;4.78;55.13
41312;BME280;27061;41.648;24.568;2022-11-15T07:02:25;86176.63;;;4.81;55.93
41312;BME280;27061;41.648;24.568;2022-11-15T07:05:11;86180.94;;;4.96;56.47
41312;BME280;27061;41.648;24.568;2022-11-15T07:07:57;86200.41;;;5.21;56.38
41312;BME280;27061;41.648;24.568;2022-11-15T07:10:43;86201.94;;;5.34;56.53
41312;BME280;27061;41.648;24.568;2022-11-15T07:13:31;86197.97;;;5.47;57.58
41312;BME280;27061;41.648;24.568;2022-11-15T07:16:20;86160.72;;;5.32;53.83
41312;BME280;27061;41.648;24.568;2022-11-15T07:19:06;86188.56;;;5.70;55.43
41312;BME280;27061;41.648;24.568;2022-11-15T07:21:53;86150.66;;;5.55;53.69
41312;BME280;27061;41.648;24.568;2022-11-15T07:24:38;86165.97;;;5.78;52.49
41312;BME280;27061;41.648;24.568;2022-11-15T07:27:24;86146.09;;;5.83;53.72
41312;BME280;27061;41.648;24.568;2022-11-15T07:30:10;86175.91;;;6.17;54.93
41312;BME280;27061;41.648;24.568;2022-11-15T07:33:00;86187.75;;;6.38;54.55
41312;BME280;27061;41.648;24.568;2022-11-15T07:35:45;86193.38;;;6.54;55.26
41312;BME280;27061;41.648;24.568;2022-11-15T07:38:35;86196.88;;;6.69;52.16
41312;BME280;27061;41.648;24.568;2022-11-15T07:41:26;86188.72;;;6.83;52.81
41312;BME280;27061;41.648;24.568;2022-11-15T07:44:12;86130.19;;;6.71;51.40
41312;BME280;27061;41.648;24.568;2022-11-15T07:46:57;86155.75;;;7.02;50.51
41312;BME280;27061;41.648;24.568;2022-11-15T07:49:43;86141.31;;;6.97;52.31
41312;BME280;27061;41.648;24.568;2022-11-15T07:52:29;86180.03;;;7.50;53.19
41312;BME280;27061;41.648;24.568;2022-11-15T07:55:14;86170.41;;;7.55;52.87
41312;BME280;27061;41.648;24.568;2022-11-15T07:58:04;86174.56;;;7.74;51.33
41312;BME280;27061;41.648;24.568;2022-11-15T08:00:49;86171.84;;;7.88;50.52
41312;BME280;27061;41.648;24.568;2022-11-15T08:03:35;86174.63;;;8.02;48.61
41312;BME280;27061;41.648;24.568;2022-11-15T08:06:21;86150.50;;;8.09;46.76
41312;BME280;27061;41.648;24.568;2022-11-15T08:09:06;86169.16;;;8.35;46.07
41312;BME280;27061;41.648;24.568;2022-11-15T08:11:52;86185.00;;;8.67;45.46
41312;BME280;27061;41.648;24.568;2022-11-15T08:14:37;86187.06;;;8.82;45.09
41312;BME280;27061;41.648;24.568;2022-11-15T08:17:23;86163.56;;;8.79;43.55
41312;BME280;27061;41.648;24.568;2022-11-15T08:20:09;86189.75;;;9.15;42.27
41312;BME280;27061;41.648;24.568;2022-11-15T08:23:00;86187.63;;;9.28;42.04
41312;BME280;27061;41.648;24.568;2022-11-15T08:25:46;86182.78;;;9.40;41.34
41312;BME280;27061;41.648;24.568;2022-11-15T08:28:32;86176.47;;;9.54;41.40
41312;BME280;27061;41.648;24.568;2022-11-15T08:31:18;86145.44;;;9.45;40.38
41312;BME280;27061;41.648;24.568;2022-11-15T08:34:05;86175.69;;;9.76;39.95
41312;BME280;27061;41.648;24.568;2022-11-15T08:36:50;86172.22;;;9.83;39.51
41312;BME280;27061;41.648;24.568;2022-11-15T08:39:36;86177.00;;;9.91;39.05
41312;BME280;27061;41.648;24.568;2022-11-15T08:42:22;86165.97;;;9.87;39.36
41312;BME280;27061;41.648;24.568;2022-11-15T08:45:08;86171.41;;;10.05;40.04
41312;BME280;27061;41.648;24.568;2022-11-15T08:47:55;86166.50;;;10.12;39.94
41312;BME280;27061;41.648;24.568;2022-11-15T08:50:41;86172.69;;;10.22;39.96
41312;BME280;27061;41.648;24.568;2022-11-15T08:53:28;86169.16;;;10.34;40.70
41312;BME280;27061;41.648;24.568;2022-11-15T08:56:15;86169.78;;;10.43;40.40
41312;BME280;27061;41.648;24.568;2022-11-15T08:59:00;86133.22;;;10.28;40.68
41312;BME280;27061;41.648;24.568;2022-11-15T09:01:46;86162.72;;;10.62;40.35
41312;BME280;27061;41.648;24.568;2022-11-15T09:04:32;86152.25;;;10.73;40.65
41312;BME280;27061;41.648;24.568;2022-11-15T09:07:17;86129.47;;;10.66;41.38
41312;BME280;27061;41.648;24.568;2022-11-15T09:10:03;86147.84;;;11.00;42.12
41312;BME280;27061;41.648;24.568;2022-11-15T09:12:49;86140.81;;;11.11;42.19
41312;BME280;27061;41.648;24.568;2022-11-15T09:15:35;86133.09;;;11.20;41.78
41312;BME280;27061;41.648;24.568;2022-11-15T09:18:20;86128.94;;;11.23;43.15
41312;BME280;27061;41.648;24.568;2022-11-15T09:21:08;86137.66;;;11.46;43.12
41312;BME280;27061;41.648;24.568;2022-11-15T09:23:53;86068.00;;;11.19;41.13
41312;BME280;27061;41.648;24.568;2022-11-15T09:26:40;86114.50;;;11.69;41.24
41312;BME280;27061;41.648;24.568;2022-11-15T09:29:39;86099.25;;;11.68;41.93
41312;BME280;27061;41.648;24.568;2022-11-15T09:32:28;86112.13;;;11.96;40.51
41312;BME280;27061;41.648;24.568;2022-11-15T09:35:23;86082.91;;;11.99;38.90
41312;BME280;27061;41.648;24.568;2022-11-15T09:38:08;86092.25;;;12.27;39.40
41312;BME280;27061;41.648;24.568;2022-11-15T09:50:41;86092.81;;;12.80;38.88
41312;BME280;27061;41.648;24.568;2022-11-15T09:53:22;86071.19;;;12.85;38.77
41312;BME280;27061;41.648;24.568;2022-11-15T09:56:23;86079.16;;;13.05;39.15
41312;BME280;27061;41.648;24.568;2022-11-15T10:04:45;86062.09;;;13.28;40.20
41312;BME280;27061;41.648;24.568;2022-11-15T10:07:46;86049.53;;;13.31;40.26
41312;BME280;27061;41.648;24.568;2022-11-15T10:12:35;86047.81;;;13.48;40.08
41312;BME280;27061;41.648;24.568;2022-11-15T10:15:05;86067.47;;;13.73;40.33
41312;BME280;27061;41.648;24.568;2022-11-15T10:17:51;86067.13;;;13.89;40.10
41312;BME280;27061;41.648;24.568;2022-11-15T10:20:24;86062.88;;;13.94;39.51
41312;BME280;27061;41.648;24.568;2022-11-15T10:22:58;86062.50;;;14.10;39.11
41312;BME280;27061;41.648;24.568;2022-11-15T10:25:27;86072.13;;;14.17;39.95
41312;BME280;27061;41.648;24.568;2022-11-15T10:27:59;86064.34;;;14.22;39.93
41312;BME280;27061;41.648;24.568;2022-11-15T10:30:35;86020.28;;;14.00;39.47
41312;BME280;27061;41.648;24.568;2022-11-15T10:33:13;86051.34;;;14.43;37.08
41312;BME280;27061;41.648;24.568;2022-11-15T10:35:42;86032.19;;;14.29;36.80
41312;BME280;27061;41.648;24.568;2022-11-15T10:38:11;86052.41;;;14.58;37.12
41312;BME280;27061;41.648;24.568;2022-11-15T10:40:39;85992.06;;;14.18;34.69
41312;BME280;27061;41.648;24.568;2022-11-15T10:43:24;86024.59;;;14.56;37.57
41312;BME280;27061;41.648;24.568;2022-11-15T10:45:52;86020.31;;;14.61;37.82
41312;BME280;27061;41.648;24.568;2022-11-15T10:48:22;86029.00;;;14.76;36.77
41312;BME280;27061;41.648;24.568;2022-11-15T10:50:50;86028.22;;;14.80;37.38
41312;BME280;27061;41.648;24.568;2022-11-15T10:55:53;86023.50;;;15.01;32.58
41312;BME280;27061;41.648;24.568;2022-11-15T10:58:39;86038.44;;;15.16;34.74
41312;BME280;27061;41.648;24.568;2022-11-15T11:01:10;86028.66;;;15.17;31.69
41312;BME280;27061;41.648;24.568;2022-11-15T11:03:39;86009.38;;;15.07;30.43
41312;BME280;27061;41.648;24.568;2022-11-15T11:06:10;86001.47;;;14.91;35.43
41312;BME280;27061;41.648;24.568;2022-11-15T11:08:38;85964.94;;;14.74;36.33
41312;BME280;27061;41.648;24.568;2022-11-15T11:11:06;85962.78;;;14.77;36.08
41312;BME280;27061;41.648;24.568;2022-11-15T11:13:38;86014.88;;;15.11;36.71
41312;BME280;27061;41.648;24.568;2022-11-15T11:16:19;85979.97;;;14.85;37.55
41312;BME280;27061;41.648;24.568;2022-11-15T11:24:28;85978.63;;;15.11;37.24
41312;BME280;27061;41.648;24.568;2022-11-15T11:35:17;85987.13;;;15.32;35.76
41312;BME280;27061;41.648;24.568;2022-11-15T11:40:41;85985.94;;;15.50;35.85
41312;BME280;27061;41.648;24.568;2022-11-15T11:43:25;85979.66;;;15.49;34.86
41312;BME280;27061;41.648;24.568;2022-11-15T11:46:26;85961.28;;;15.33;34.69
41312;BME280;27061;41.648;24.568;2022-11-15T11:49:19;85975.50;;;15.48;34.17
41312;BME280;27061;41.648;24.568;2022-11-15T11:51:54;85980.22;;;15.56;34.26
41312;BME280;27061;41.648;24.568;2022-11-15T11:54:37;85971.84;;;15.56;33.61
41312;BME280;27061;41.648;24.568;2022-11-15T11:57:18;85934.78;;;15.34;34.38
41312;BME280;27061;41.648;24.568;2022-11-15T12:00:19;85966.66;;;15.66;33.75
41312;BME280;27061;41.648;24.568;2022-11-15T12:05:52;85937.03;;;15.53;33.55
41312;BME280;27061;41.648;24.568;2022-11-15T12:11:20;85955.09;;;15.81;32.91
41312;BME280;27061;41.648;24.568;2022-11-15T12:13:56;85929.75;;;15.64;31.88
41312;BME280;27061;41.648;24.568;2022-11-15T12:16:32;85924.88;;;15.64;32.88
41312;BME280;27061;41.648;24.568;2022-11-15T12:19:01;85945.91;;;15.84;32.89
41312;BME280;27061;41.648;24.568;2022-11-15T12:26:56;85942.94;;;15.90;30.88
41312;BME280;27061;41.648;24.568;2022-11-15T12:29:27;85932.22;;;15.99;28.34
41312;BME280;27061;41.648;24.568;2022-11-15T12:31:56;85906.78;;;15.86;26.77
41312;BME280;27061;41.648;24.568;2022-11-15T12:34:40;85927.19;;;16.03;27.63
41312;BME280;27061;41.648;24.568;2022-11-15T12:40:17;85929.84;;;16.07;27.21
41312;BME280;27061;41.648;24.568;2022-11-15T12:43:00;85927.31;;;15.99;28.80
41312;BME280;27061;41.648;24.568;2022-11-15T12:56:18;85922.28;;;16.04;32.85
41312;BME280;27061;41.648;24.568;2022-11-15T13:06:45;85914.84;;;15.96;34.13
41312;BME280;27061;41.648;24.568;2022-11-15T13:11:57;85902.03;;;15.81;35.21
41312;BME280;27061;41.648;24.568;2022-11-15T13:19:47;85899.59;;;15.21;35.77
41312;BME280;27061;41.648;24.568;2022-11-15T13:22:15;85876.69;;;15.16;35.95
41312;BME280;27061;41.648;24.568;2022-11-15T13:25:01;85892.31;;;15.32;35.96
41312;BME280;27061;41.648;24.568;2022-11-15T13:27:28;85913.81;;;15.35;35.61
41312;BME280;27061;41.648;24.568;2022-11-15T13:29:55;85876.81;;;15.12;35.57
41312;BME280;27061;41.648;24.568;2022-11-15T13:32:22;85897.72;;;15.13;35.82
41312;BME280;27061;41.648;24.568;2022-11-15T13:34:50;85869.41;;;14.78;36.04
41312;BME280;27061;41.648;24.568;2022-11-15T13:39:49;85875.94;;;14.41;36.67
41312;BME280;27061;41.648;24.568;2022-11-15T13:42:18;85891.09;;;14.19;37.11
41312;BME280;27061;41.648;24.568;2022-11-15T13:44:58;85902.63;;;14.03;37.06
41312;BME280;27061;41.648;24.568;2022-11-15T13:47:27;85857.56;;;13.37;37.00
41312;BME280;27061;41.648;24.568;2022-11-15T13:49:57;85859.38;;;13.17;37.51
41312;BME280;27061;41.648;24.568;2022-11-15T13:52:31;85842.00;;;12.84;38.54
41312;BME280;27061;41.648;24.568;2022-11-15T14:00:06;85882.78;;;12.94;39.32
41312;BME280;27061;41.648;24.568;2022-11-15T14:02:49;85889.22;;;12.84;40.31
41312;BME280;27061;41.648;24.568;2022-11-15T14:05:22;85846.75;;;12.55;39.81
41312;BME280;27061;41.648;24.568;2022-11-15T14:08:11;85847.75;;;12.39;39.99
41312;BME280;27061;41.648;24.568;2022-11-15T14:10:40;85861.00;;;12.36;39.12
41312;BME280;27061;41.648;24.568;2022-11-15T14:13:30;85878.72;;;12.54;36.77
41312;BME280;27061;41.648;24.568;2022-11-15T14:16:19;85849.56;;;12.18;37.24
41312;BME280;27061;41.648;24.568;2022-11-15T14:18:47;85874.06;;;12.42;37.33
41312;BME280;27061;41.648;24.568;2022-11-15T14:21:17;85864.22;;;12.12;37.63
41312;BME280;27061;41.648;24.568;2022-11-15T14:23:45;85891.94;;;12.14;38.11
41312;BME280;27061;41.648;24.568;2022-11-15T14:26:34;85870.16;;;11.90;38.02
41312;BME280;27061;41.648;24.568;2022-11-15T14:29:26;85871.50;;;11.93;37.73
41312;BME280;27061;41.648;24.568;2022-11-15T14:32:05;85871.78;;;11.74;39.01
41312;BME280;27061;41.648;24.568;2022-11-15T14:34:33;85874.72;;;11.64;39.18
41312;BME280;27061;41.648;24.568;2022-11-15T14:37:00;85860.88;;;11.17;39.10
41312;BME280;27061;41.648;24.568;2022-11-15T14:39:27;85843.06;;;11.04;39.15
41312;BME280;27061;41.648;24.568;2022-11-15T14:41:54;85840.50;;;10.90;39.19
41312;BME280;27061;41.648;24.568;2022-11-15T14:44:21;85839.88;;;10.85;36.70
41312;BME280;27061;41.648;24.568;2022-11-15T14:46:48;85863.13;;;11.05;38.18
41312;BME280;27061;41.648;24.568;2022-11-15T14:49:15;85860.53;;;10.92;39.23
41312;BME280;27061;41.648;24.568;2022-11-15T14:51:42;85834.59;;;10.67;40.76
41312;BME280;27061;41.648;24.568;2022-11-15T14:54:10;85856.63;;;10.75;39.82
41312;BME280;27061;41.648;24.568;2022-11-15T14:56:37;85864.84;;;10.81;40.24
41312;BME280;27061;41.648;24.568;2022-11-15T14:59:04;85830.84;;;10.36;40.37
41312;BME280;27061;41.648;24.568;2022-11-15T15:01:31;85865.19;;;10.55;40.80
41312;BME280;27061;41.648;24.568;2022-11-15T15:03:58;85839.88;;;10.32;41.34
41312;BME280;27061;41.648;24.568;2022-11-15T15:06:26;85874.22;;;10.51;41.40
41312;BME280;27061;41.648;24.568;2022-11-15T15:08:53;85835.19;;;10.18;41.68
41312;BME280;27061;41.648;24.568;2022-11-15T15:11:23;85875.00;;;10.46;41.12
41312;BME280;27061;41.648;24.568;2022-11-15T15:13:50;85831.75;;;10.18;41.75
41312;BME280;27061;41.648;24.568;2022-11-15T15:16:19;85869.50;;;10.42;40.26
41312;BME280;27061;41.648;24.568;2022-11-15T15:18:46;85787.22;;;9.79;39.67
41312;BME280;27061;41.648;24.568;2022-11-15T15:23:46;85875.28;;;10.17;39.86
41312;BME280;27061;41.648;24.568;2022-11-15T15:26:13;85843.75;;;9.94;40.77
41312;BME280;27061;41.648;24.568;2022-11-15T15:28:40;85869.78;;;10.15;41.39
41312;BME280;27061;41.648;24.568;2022-11-15T15:31:09;85845.97;;;9.81;41.49
41312;BME280;27061;41.648;24.568;2022-11-15T15:33:36;85872.84;;;9.87;40.92
41312;BME280;27061;41.648;24.568;2022-11-15T15:36:04;85875.88;;;9.61;41.53
41312;BME280;27061;41.648;24.568;2022-11-15T15:38:31;85880.03;;;9.62;42.08
41312;BME280;27061;41.648;24.568;2022-11-15T15:40:59;85880.09;;;9.51;42.19
41312;BME280;27061;41.648;24.568;2022-11-15T15:43:28;85871.91;;;9.41;42.38
41312;BME280;27061;41.648;24.568;2022-11-15T15:45:55;85878.75;;;9.48;42.74
41312;BME280;27061;41.648;24.568;2022-11-15T15:48:22;85880.19;;;9.41;42.94
41312;BME280;27061;41.648;24.568;2022-11-15T15:50:49;85883.69;;;9.34;42.66
41312;BME280;27061;41.648;24.568;2022-11-15T15:53:16;85865.19;;;9.16;43.62
41312;BME280;27061;41.648;24.568;2022-11-15T15:55:43;85882.38;;;9.27;43.51
41312;BME280;27061;41.648;24.568;2022-11-15T15:58:10;85836.44;;;8.82;43.86
41312;BME280;27061;41.648;24.568;2022-11-15T16:00:38;85880.31;;;9.23;43.32
41312;BME280;27061;41.648;24.568;2022-11-15T16:03:05;85863.91;;;9.03;43.83
41312;BME280;27061;41.648;24.568;2022-11-15T16:05:32;85874.97;;;9.03;43.94
41312;BME280;27061;41.648;24.568;2022-11-15T16:07:59;85861.91;;;8.95;43.94
41312;BME280;27061;41.648;24.568;2022-11-15T16:10:29;85883.91;;;9.09;44.28
41312;BME280;27061;41.648;24.568;2022-11-15T16:12:57;85879.09;;;9.04;44.52
41312;BME280;27061;41.648;24.568;2022-11-15T16:15:26;85883.28;;;8.99;44.87
41312;BME280;27061;41.648;24.568;2022-11-15T16:17:59;85875.13;;;8.78;45.11